Time;durP1;ratioP1;P1;durP2;ratioP2;P2;SDS_P1;SDS_P2;PMS_P1;PMS_P2;Temp;Humidity;BMP_temperature;BMP_pressure;BME280_temperature;BME280_humidity;BME280_pressure;Samples;Min_cycle;Max_cycle;Signal;HPM_P1;HPM_P2
2023/01/01 00:01:23;;;;;;;21.42;8.93;;;;;;;15.24;66.92;100803.53;5117797;28;20027;-38
2023/01/01 00:03:56;;;;;;;12.15;3.95;;;;;;;15.22;66.11;100794.78;5118179;28;20034;-38
2023/01/01 00:06:23;;;;;;;8.93;2.90;;;;;;;15.27;64.51;100792.06;5118294;28;20024;-38
2023/01/01 00:10:26;;;;;;;7.07;2.50;;;;;;;15.27;64.87;100783.91;5117814;28;20091;-39
2023/01/01 00:11:34;;;;;;;13.30;7.95;;;;;;;15.25;65.49;100810.59;5117325;28;20039;-38
2023/01/01 00:13:59;;;;;;;12.33;3.90;;;;;;;15.23;65.13;100807.34;5100054;28;20031;-38
2023/01/01 00:16:24;;;;;;;22.27;3.87;;;;;;;15.19;65.59;100805.13;5118390;28;20261;-37
2023/01/01 00:18:50;;;;;;;11.77;6.15;;;;;;;15.15;65.72;100806.72;5117011;28;20056;-37
2023/01/01 00:21:16;;;;;;;10.40;4.10;;;;;;;15.12;65.16;100820.84;5117502;28;20023;-37
2023/01/01 00:23:41;;;;;;;9.55;2.90;;;;;;;15.10;65.53;100803.97;5118272;28;20364;-37
2023/01/01 00:26:12;;;;;;;11.90;4.93;;;;;;;15.04;65.48;100796.84;5117024;28;20023;-38
2023/01/01 00:28:38;;;;;;;9.15;3.35;;;;;;;15.03;65.64;100800.66;5118152;28;20081;-38
2023/01/01 00:31:12;;;;;;;11.82;4.80;;;;;;;15.05;65.44;100800.41;5117316;28;20409;-38
2023/01/01 00:33:38;;;;;;;8.45;3.50;;;;;;;15.05;65.00;100805.84;5117878;28;20031;-38
2023/01/01 00:36:08;;;;;;;9.93;4.03;;;;;;;15.03;64.90;100817.00;5117214;28;20038;-37
2023/01/01 00:38:34;;;;;;;14.82;6.68;;;;;;;15.01;65.60;100805.53;5117192;28;20038;-37
2023/01/01 00:40:59;;;;;;;10.73;4.65;;;;;;;14.94;64.42;100792.16;5117668;28;20110;-38
2023/01/01 00:43:25;;;;;;;;;;;;;;;15.02;64.43;100801.72;5117821;28;20073;-38
2023/01/01 00:45:53;;;;;;;14.65;5.88;;;;;;;15.11;64.07;100805.59;5116548;28;19919;-38
2023/01/01 00:48:20;;;;;;;11.45;4.50;;;;;;;15.10;64.87;100801.25;5117247;28;20020;-37
2023/01/01 00:50:48;;;;;;;8.93;2.47;;;;;;;15.17;64.13;100796.38;5116242;28;20384;-38
2023/01/01 00:53:13;;;;;;;10.13;2.72;;;;;;;15.18;64.58;100800.75;5117147;28;20043;-38
2023/01/01 00:55:39;;;;;;;4.70;2.17;;;;;;;15.16;64.81;100808.34;5116460;28;20019;-38
2023/01/01 00:58:05;;;;;;;8.65;2.55;;;;;;;15.13;65.15;100813.53;5116964;28;20103;-38
2023/01/01 01:00:30;;;;;;;6.97;2.90;;;;;;;15.03;65.44;100810.72;5117198;28;20111;-38
2023/01/01 01:02:56;;;;;;;7.60;3.15;;;;;;;15.09;65.79;100824.13;5116769;28;20446;-38
2023/01/01 01:05:21;;;;;;;11.07;2.43;;;;;;;15.10;64.53;100823.03;5116617;28;20429;-38
2023/01/01 01:07:46;;;;;;;5.33;2.00;;;;;;;15.06;65.00;100835.53;5116924;28;20681;-37
2023/01/01 01:10:12;;;;;;;7.53;2.03;;;;;;;15.05;65.15;100817.53;5116872;28;20591;-38
2023/01/01 01:12:37;;;;;;;9.40;2.00;;;;;;;15.05;64.84;100835.78;5116737;28;20482;-37
2023/01/01 01:15:05;;;;;;;7.03;2.10;;;;;;;15.08;64.39;100832.53;5117344;28;20360;-38
2023/01/01 01:17:30;;;;;;;11.70;2.90;;;;;;;15.02;65.03;100826.22;5116346;28;20023;-38
2023/01/01 01:19:56;;;;;;;5.23;1.57;;;;;;;14.99;65.40;100821.31;5116739;28;20142;-37
2023/01/01 01:22:21;;;;;;;6.30;1.95;;;;;;;15.03;64.57;100807.97;5116320;28;20266;-37
2023/01/01 01:24:46;;;;;;;8.52;2.45;;;;;;;14.93;65.58;100809.56;5116243;28;20108;-38
2023/01/01 01:27:12;;;;;;;10.70;2.00;;;;;;;14.99;65.14;100804.97;5116180;28;20035;-38
2023/01/01 01:29:37;;;;;;;5.05;1.90;;;;;;;14.85;66.49;100820.13;5117028;28;20028;-37
2023/01/01 01:32:03;;;;;;;7.35;1.80;;;;;;;14.96;65.65;100821.00;5115898;28;20493;-38
2023/01/01 01:34:28;;;;;;;16.50;2.05;;;;;;;14.99;65.06;100834.94;5116167;28;20035;-37
2023/01/01 01:36:54;;;;;;;5.63;1.90;;;;;;;14.93;65.63;100836.81;5115817;28;20023;-38
2023/01/01 01:39:19;;;;;;;8.27;2.17;;;;;;;14.90;65.90;100844.66;5116324;28;20023;-37
2023/01/01 01:41:44;;;;;;;11.10;3.63;;;;;;;14.88;65.83;100854.97;5116183;28;20546;-37
2023/01/01 01:44:47;;;;;;;6.83;2.20;;;;;;;14.89;65.77;100851.19;5116015;28;20030;-38
2023/01/01 01:47:15;;;;;;;5.93;2.00;;;;;;;14.88;65.69;100839.50;5115732;28;20282;-38
2023/01/01 01:49:42;;;;;;;8.93;2.30;;;;;;;14.86;65.75;100819.03;5116143;28;20024;-38
2023/01/01 01:52:08;;;;;;;8.20;1.75;;;;;;;14.84;66.06;100842.97;5115991;28;20531;-38
2023/01/01 01:54:33;;;;;;;6.10;2.00;;;;;;;14.84;65.15;100842.97;5116563;28;20110;-38
2023/01/01 01:57:03;;;;;;;5.97;2.05;;;;;;;14.71;66.24;100844.22;5115617;28;20035;-37
2023/01/01 01:59:32;;;;;;;6.53;1.45;;;;;;;14.74;65.78;100860.03;5115640;28;20508;-37
2023/01/01 02:01:59;;;;;;;8.13;2.30;;;;;;;14.70;65.99;100852.66;5114137;28;20035;-37
2023/01/01 02:04:24;;;;;;;6.07;2.05;;;;;;;14.71;65.10;100865.19;5116328;28;20062;-37
2023/01/01 02:06:51;;;;;;;7.43;2.00;;;;;;;14.58;67.08;100867.22;5115290;28;20032;-37
2023/01/01 02:09:17;;;;;;;7.43;2.15;;;;;;;14.64;65.45;100874.38;5115671;28;20063;-37
2023/01/01 02:11:42;;;;;;;6.60;1.90;;;;;;;14.58;66.05;100880.81;5116140;28;20464;-37
2023/01/01 02:14:07;;;;;;;5.77;1.67;;;;;;;14.61;66.66;100874.88;5115566;28;20027;-37
2023/01/01 02:16:45;;;;;;;6.70;1.90;;;;;;;14.61;65.07;100880.31;5115172;28;20024;-37
2023/01/01 02:19:16;;;;;;;5.65;1.90;;;;;;;14.59;65.59;100884.38;5115556;28;20028;-37
2023/01/01 02:22:00;;;;;;;6.40;1.98;;;;;;;14.53;66.20;100869.06;5115158;28;20106;-37
2023/01/01 02:24:43;;;;;;;5.68;1.95;;;;;;;14.45;65.83;100867.63;5115424;28;20028;-38
2023/01/01 02:27:22;;;;;;;5.38;1.70;;;;;;;14.50;66.17;100875.06;5115816;28;20056;-38
2023/01/01 02:30:08;;;;;;;6.53;1.70;;;;;;;14.42;66.41;100873.56;5115361;28;20023;-38
2023/01/01 02:32:40;;;;;;;5.65;2.50;;;;;;;14.38;65.57;100870.53;5114902;28;20047;-38
2023/01/01 02:35:36;;;;;;;7.75;2.10;;;;;;;14.37;67.05;100868.06;5115303;28;20341;-38
2023/01/01 02:38:23;;;;;;;5.93;1.70;;;;;;;14.30;66.26;100871.00;5114817;28;20019;-38
2023/01/01 02:40:54;;;;;;;12.70;2.28;;;;;;;14.22;66.69;100857.84;5114768;28;20491;-38
2023/01/01 02:43:20;;;;;;;7.05;1.98;;;;;;;14.29;65.29;100874.75;5114789;28;20516;-38
2023/01/01 02:45:45;;;;;;;5.07;1.67;;;;;;;14.28;65.92;100878.56;5114663;28;20111;-38
2023/01/01 02:48:42;;;;;;;7.03;2.10;;;;;;;14.24;66.61;100877.44;5114895;28;20111;-38
2023/01/01 02:51:32;;;;;;;11.18;2.58;;;;;;;14.17;66.55;100874.91;5114693;28;20075;-38
2023/01/01 02:54:10;;;;;;;7.43;1.63;;;;;;;14.20;67.01;100875.47;5114266;28;20049;-37
2023/01/01 02:56:53;;;;;;;5.43;1.75;;;;;;;14.23;65.95;100894.84;5115333;28;20025;-38
2023/01/01 03:02:30;;;;;;;6.32;2.20;;;;;;;14.20;66.67;100905.38;5114459;28;20078;-38
2023/01/01 03:05:06;;;;;;;7.20;2.08;;;;;;;14.21;66.32;100888.03;5114918;28;20066;-38
2023/01/01 03:07:52;;;;;;;7.22;1.60;;;;;;;14.17;66.67;100902.13;5114310;28;20030;-38
2023/01/01 03:10:22;;;;;;;7.20;2.03;;;;;;;14.14;67.42;100901.78;5114298;28;20471;-38
2023/01/01 03:12:59;;;;;;;5.63;1.77;;;;;;;14.09;68.28;100905.25;5114106;28;20032;-38
2023/01/01 03:15:39;;;;;;;4.32;1.77;;;;;;;14.11;67.07;100896.88;5114730;28;20043;-38
2023/01/01 03:18:25;;;;;;;6.80;1.60;;;;;;;14.06;67.82;100907.69;5114075;28;20122;-38
2023/01/01 03:20:55;;;;;;;8.05;1.60;;;;;;;14.12;67.07;100912.09;5114654;28;20039;-38
2023/01/01 03:23:27;;;;;;;5.75;1.80;;;;;;;14.10;67.72;100920.53;5113959;28;20452;-38
2023/01/01 03:25:56;;;;;;;8.20;1.73;;;;;;;14.04;67.61;100896.22;5114578;28;20020;-38
2023/01/01 03:28:27;;;;;;;4.72;1.40;;;;;;;14.06;67.74;100902.25;5114017;28;20024;-38
2023/01/01 03:30:53;;;;;;;7.03;1.52;;;;;;;14.12;68.04;100920.25;5114128;28;20181;-38
2023/01/01 03:33:29;;;;;;;8.00;2.20;;;;;;;14.09;68.79;100924.28;5114854;28;20054;-38
2023/01/01 03:36:22;;;;;;;6.55;1.35;;;;;;;14.06;68.97;100927.53;5114218;28;20024;-38
2023/01/01 03:38:54;;;;;;;4.63;1.60;;;;;;;14.03;69.19;100908.19;5095911;28;20054;-38
2023/01/01 03:41:36;;;;;;;5.90;1.38;;;;;;;14.07;69.51;100926.47;5114283;28;20098;-38
2023/01/01 03:44:17;;;;;;;8.45;1.67;;;;;;;14.02;69.39;100920.13;5113991;28;20380;-38
2023/01/01 03:46:43;;;;;;;4.97;1.58;;;;;;;14.09;69.19;100937.91;5114111;28;20088;-37
2023/01/01 03:49:10;;;;;;;6.18;1.60;;;;;;;14.04;69.72;100929.66;5113958;28;20405;-37
2023/01/01 03:52:03;;;;;;;7.10;2.22;;;;;;;14.08;69.64;100947.13;5113873;28;20123;-37
2023/01/01 03:54:34;;;;;;;6.43;1.50;;;;;;;14.08;70.13;100958.00;5114429;28;20055;-38
2023/01/01 03:57:06;;;;;;;6.70;1.80;;;;;;;14.08;70.35;100943.59;5114091;28;20023;-38
2023/01/01 04:00:15;;;;;;;3.67;1.50;;;;;;;14.09;69.87;100954.22;5114045;28;20027;-38
2023/01/01 04:03:06;;;;;;;4.72;1.35;;;;;;;14.06;71.20;100953.91;5113884;28;20031;-37
2023/01/01 04:05:38;;;;;;;4.43;1.88;;;;;;;13.98;71.74;100947.00;5113701;28;20032;-37
2023/01/01 04:08:04;;;;;;;3.60;1.55;;;;;;;13.99;71.40;100950.53;5114254;28;20368;-38
2023/01/01 04:10:33;;;;;;;4.95;1.52;;;;;;;13.93;70.90;100943.38;5114276;28;20036;-37
2023/01/01 04:13:02;;;;;;;7.88;1.60;;;;;;;13.93;71.25;100936.06;5113534;28;20114;-38
2023/01/01 04:15:27;;;;;;;7.18;1.42;;;;;;;13.91;71.75;100940.94;5113970;28;20036;-37
2023/01/01 04:17:53;;;;;;;5.78;1.67;;;;;;;13.94;71.96;100959.44;5113582;28;20081;-37
2023/01/01 04:20:19;;;;;;;9.90;2.53;;;;;;;13.92;72.24;100953.44;5113265;28;20023;-37
2023/01/01 04:22:45;;;;;;;;;;;;;;;13.94;72.82;100983.91;5113997;28;20023;-37
2023/01/01 04:25:11;;;;;;;4.13;1.45;;;;;;;13.88;73.18;100971.31;5114699;28;19912;-38
2023/01/01 04:27:38;;;;;;;4.45;1.50;;;;;;;13.90;72.27;100969.16;5117301;28;20071;-38
2023/01/01 04:30:06;;;;;;;5.82;1.52;;;;;;;13.92;72.03;100967.03;5117971;28;20049;-38
2023/01/01 04:32:31;;;;;;;7.22;1.67;;;;;;;13.84;73.26;100951.97;5117866;28;20166;-38
2023/01/01 04:34:57;;;;;;;4.15;1.30;;;;;;;13.88;72.80;100961.28;5117266;28;20031;-38
2023/01/01 04:37:22;;;;;;;4.07;1.38;;;;;;;13.85;73.27;100971.81;5117077;28;20084;-38
2023/01/01 04:39:48;;;;;;;4.78;1.25;;;;;;;13.87;72.77;100970.50;5117502;28;20028;-37
2023/01/01 04:42:13;;;;;;;5.32;1.98;;;;;;;13.82;73.28;100975.88;5117704;28;20053;-37
2023/01/01 04:44:38;;;;;;;5.70;1.70;;;;;;;13.86;73.51;100985.19;5117891;28;20035;-37
2023/01/01 04:47:04;;;;;;;5.13;1.83;;;;;;;13.86;73.41;100987.88;5116577;28;20035;-38
2023/01/01 04:49:29;;;;;;;5.97;1.50;;;;;;;13.85;73.48;100977.25;5117076;28;20023;-37
2023/01/01 04:51:54;;;;;;;5.20;1.43;;;;;;;13.86;73.52;100985.19;5117947;28;20570;-37
2023/01/01 04:54:20;;;;;;;5.93;1.50;;;;;;;13.78;73.80;100982.06;5116669;28;20024;-38
2023/01/01 04:56:45;;;;;;;6.70;1.95;;;;;;;13.77;74.30;100981.22;5116843;28;20066;-37
2023/01/01 04:59:10;;;;;;;5.93;1.50;;;;;;;13.84;74.29;100991.91;5116566;28;20396;-37
2023/01/01 05:01:36;;;;;;;3.90;1.50;;;;;;;13.85;74.08;100993.56;5117035;28;20373;-38
2023/01/01 05:04:01;;;;;;;5.25;1.35;;;;;;;13.84;74.56;101009.03;5116483;28;20106;-38
2023/01/01 05:06:27;;;;;;;5.97;2.03;;;;;;;13.86;74.64;101006.09;5116878;28;20038;-37
2023/01/01 05:08:55;;;;;;;6.88;1.73;;;;;;;13.89;74.39;101021.91;5116883;28;20653;-38
2023/01/01 05:11:23;;;;;;;5.65;2.17;;;;;;;13.86;74.72;101022.41;5116543;28;20089;-37
2023/01/01 05:13:51;;;;;;;6.82;1.67;;;;;;;13.82;74.90;101015.81;5116461;28;20089;-37
2023/01/01 05:16:25;;;;;;;5.07;1.52;;;;;;;13.84;74.68;101010.94;5116460;28;20031;-37
2023/01/01 05:18:50;;;;;;;5.13;1.60;;;;;;;13.91;75.05;101022.47;5117253;28;20087;-37
2023/01/01 05:21:22;;;;;;;5.47;1.60;;;;;;;13.85;74.79;101010.69;5116357;28;20034;-37
2023/01/01 05:23:48;;;;;;;7.40;1.60;;;;;;;13.91;75.97;101036.91;5116074;28;20032;-37
2023/01/01 05:26:17;;;;;;;6.72;1.33;;;;;;;13.88;76.00;101055.59;5115850;28;20382;-37
2023/01/01 05:28:42;;;;;;;5.22;1.63;;;;;;;13.84;77.18;101057.16;5097644;28;20118;-37
2023/01/01 05:31:11;;;;;;;4.85;1.75;;;;;;;13.83;76.67;101066.38;5115980;28;20543;-37
2023/01/01 05:33:37;;;;;;;5.28;1.63;;;;;;;13.82;76.29;101049.25;5116661;28;20452;-38
2023/01/01 05:36:03;;;;;;;8.25;1.63;;;;;;;13.75;76.91;101053.19;5115619;28;20051;-37
2023/01/01 05:38:29;;;;;;;4.05;1.50;;;;;;;13.80;76.98;101062.25;5115763;28;20031;-38
2023/01/01 05:40:55;;;;;;;6.45;1.55;;;;;;;13.72;77.87;101068.13;5115768;28;20027;-39
2023/01/01 05:43:20;;;;;;;5.43;1.67;;;;;;;13.63;78.00;101045.94;5115945;28;20023;-38
2023/01/01 05:45:45;;;;;;;5.83;1.67;;;;;;;13.65;78.13;101043.81;5115532;28;20364;-38
2023/01/01 05:48:11;;;;;;;3.97;1.73;;;;;;;13.66;78.74;101063.66;5115916;28;20249;-38
2023/01/01 05:50:36;;;;;;;4.60;1.50;;;;;;;13.67;79.11;101075.38;5115734;28;20051;-38
2023/01/01 05:53:02;;;;;;;6.18;2.00;;;;;;;13.63;79.68;101094.88;5115868;28;20036;-38
2023/01/01 05:55:28;;;;;;;5.55;1.63;;;;;;;13.60;80.51;101099.97;5115428;28;20046;-38
2023/01/01 05:57:53;;;;;;;8.30;2.23;;;;;;;13.59;80.29;101099.13;5116234;28;20035;-38
2023/01/01 06:00:19;;;;;;;7.53;1.75;;;;;;;13.48;81.04;101093.78;5115347;28;20295;-38
2023/01/01 06:02:44;;;;;;;7.53;2.22;;;;;;;13.50;81.48;101116.91;5116365;28;20028;-38
2023/01/01 06:05:10;;;;;;;6.87;1.77;;;;;;;13.41;81.94;101110.22;5115469;28;20103;-38
2023/01/01 06:07:35;;;;;;;4.30;1.75;;;;;;;13.40;83.02;101127.56;5115388;28;20273;-38
2023/01/01 06:10:01;;;;;;;7.60;1.73;;;;;;;13.34;82.92;101128.56;5115120;28;20020;-38
2023/01/01 06:12:26;;;;;;;6.47;1.92;;;;;;;13.36;83.27;101142.72;5115342;28;20031;-38
2023/01/01 06:14:51;;;;;;;8.20;1.97;;;;;;;13.35;84.23;101157.34;5115109;28;20076;-38
2023/01/01 06:17:17;;;;;;;8.83;1.87;;;;;;;13.30;83.89;101149.94;5115187;28;20039;-38
2023/01/01 06:19:42;;;;;;;4.10;1.40;;;;;;;13.27;84.62;101153.13;5115283;28;20241;-38
2023/01/01 06:22:08;;;;;;;4.23;1.70;;;;;;;13.24;84.30;101163.66;5115182;28;20024;-38
2023/01/01 06:24:33;;;;;;;5.28;1.42;;;;;;;13.21;84.26;101156.78;5115695;28;20019;-38
2023/01/01 06:26:58;;;;;;;3.93;1.23;;;;;;;13.15;84.68;101177.56;5115026;28;20444;-38
2023/01/01 06:29:23;;;;;;;5.43;1.37;;;;;;;13.08;85.71;101197.78;5096837;28;20276;-38
2023/01/01 06:31:49;;;;;;;6.57;1.53;;;;;;;12.81;89.58;101192.03;5115302;28;20028;-38
2023/01/01 06:34:14;;;;;;;7.30;1.87;;;;;;;12.56;93.08;101203.13;5115290;28;20655;-38
2023/01/01 06:36:39;;;;;;;7.33;1.67;;;;;;;12.41;94.84;101200.06;5114901;28;20039;-38
2023/01/01 06:39:05;;;;;;;5.20;1.37;;;;;;;12.25;96.97;101196.97;5114922;28;20388;-38
2023/01/01 06:41:30;;;;;;;4.53;1.33;;;;;;;12.14;97.78;101215.91;5114755;28;20603;-38
2023/01/01 06:43:57;;;;;;;3.37;1.13;;;;;;;12.05;98.31;101202.72;5115594;28;20081;-38
2023/01/01 06:46:25;;;;;;;3.40;1.33;;;;;;;12.02;99.39;101210.47;5114882;28;20285;-38
2023/01/01 06:48:54;;;;;;;4.97;1.50;;;;;;;11.98;97.89;101215.53;5114163;28;20103;-38
2023/01/01 06:51:35;;;;;;;5.70;1.40;;;;;;;11.97;97.22;101218.47;5115142;28;20077;-38
2023/01/01 06:54:02;;;;;;;2.53;1.10;;;;;;;11.99;96.04;101214.47;5114186;28;20035;-38
2023/01/01 06:56:28;;;;;;;4.28;1.30;;;;;;;12.01;96.00;101228.63;5114787;28;20375;-38
2023/01/01 06:58:53;;;;;;;3.15;1.25;;;;;;;12.03;95.18;101253.59;5114854;28;20076;-38
2023/01/01 07:01:22;;;;;;;3.33;1.00;;;;;;;12.05;94.86;101250.66;5114741;28;20028;-38
2023/01/01 07:03:55;;;;;;;4.53;1.17;;;;;;;12.00;94.82;101243.22;5114495;28;20093;-38
2023/01/01 07:06:22;;;;;;;4.53;1.30;;;;;;;12.06;95.67;101241.47;5114845;28;20417;-38
2023/01/01 07:08:48;;;;;;;3.80;1.35;;;;;;;12.03;97.08;101225.69;5114412;28;20031;-38
2023/01/01 07:11:13;;;;;;;2.92;1.30;;;;;;;12.01;98.57;101255.72;5095978;28;20434;-38
2023/01/01 07:13:39;;;;;;;4.20;1.25;;;;;;;11.93;99.07;101247.09;5114891;28;20030;-38
2023/01/01 07:16:05;;;;;;;4.72;1.60;;;;;;;11.92;99.57;101254.41;5114015;28;20471;-38
2023/01/01 07:18:31;;;;;;;3.67;1.38;;;;;;;11.81;99.18;101255.16;5114442;28;20027;-38
2023/01/01 07:20:58;;;;;;;3.72;1.30;;;;;;;11.93;99.08;101268.78;5114181;28;20072;-38
2023/01/01 07:23:25;;;;;;;3.83;1.50;;;;;;;11.92;100.00;101262.53;5114462;28;20039;-38
2023/01/01 07:25:52;;;;;;;6.88;1.90;;;;;;;11.92;99.99;101262.53;5114067;28;20024;-38
2023/01/01 07:28:17;;;;;;;7.78;1.63;;;;;;;11.88;100.00;101272.16;5114152;28;20114;-38
2023/01/01 07:30:43;;;;;;;6.68;1.50;;;;;;;11.83;100.00;101280.16;5113762;28;20066;-38
2023/01/01 07:33:13;;;;;;;5.60;1.45;;;;;;;11.80;100.00;101278.69;5114393;28;20024;-37
2023/01/01 07:35:39;;;;;;;6.15;1.50;;;;;;;11.71;100.00;101277.38;5113631;28;20019;-38
2023/01/01 07:38:05;;;;;;;3.80;1.23;;;;;;;11.77;99.60;101287.28;5114309;28;20463;-38
2023/01/01 07:40:31;;;;;;;5.28;1.30;;;;;;;11.72;99.48;101289.03;5113993;28;20101;-37
2023/01/01 07:42:56;;;;;;;4.15;1.25;;;;;;;11.70;99.34;101291.94;5096023;28;20036;-38
2023/01/01 07:45:22;;;;;;;5.97;1.52;;;;;;;11.68;98.07;101295.94;5113977;28;20027;-37
2023/01/01 07:47:53;;;;;;;5.40;1.10;;;;;;;11.60;96.21;101292.47;5113560;28;20085;-37
2023/01/01 07:50:20;;;;;;;3.35;1.10;;;;;;;11.62;96.66;101307.69;5113621;28;20493;-37
2023/01/01 07:52:45;;;;;;;4.78;1.40;;;;;;;11.58;95.47;101318.97;5114114;28;20476;-38
2023/01/01 07:55:13;;;;;;;6.80;1.60;;;;;;;11.57;96.04;101322.75;5113910;28;20031;-37
2023/01/01 07:57:39;;;;;;;5.93;1.33;;;;;;;11.51;96.75;101337.16;5113739;28;20277;-38
2023/01/01 08:00:05;;;;;;;4.80;1.08;;;;;;;11.49;98.16;101344.69;5114846;28;20031;-37
2023/01/01 08:02:31;;;;;;;4.63;1.38;;;;;;;11.47;99.30;101352.25;5117720;28;20039;-37
2023/01/01 08:04:57;;;;;;;4.75;1.45;;;;;;;11.13;100.00;101310.31;5118481;28;20036;-37
2023/01/01 08:07:22;;;;;;;6.03;1.30;;;;;;;11.30;100.00;101376.34;5117751;28;20368;-37
2023/01/01 08:09:47;;;;;;;6.60;1.27;;;;;;;11.26;100.00;101398.66;5118085;28;20020;-38
2023/01/01 08:12:12;;;;;;;4.47;1.30;;;;;;;11.19;100.00;101389.78;5117402;28;20035;-37
2023/01/01 08:14:38;;;;;;;6.50;1.50;;;;;;;11.08;100.00;101396.75;5117671;28;20023;-37
2023/01/01 08:17:03;;;;;;;8.00;1.80;;;;;;;10.98;100.00;101401.81;5117598;28;20027;-37
2023/01/01 08:19:28;;;;;;;6.50;1.60;;;;;;;10.86;100.00;101385.47;5117896;28;20031;-37
2023/01/01 08:21:54;;;;;;;5.57;1.63;;;;;;;10.76;100.00;101371.59;5117833;28;20024;-37
2023/01/01 08:24:19;;;;;;;10.63;2.50;;;;;;;10.73;100.00;101372.03;5117776;28;20059;-38
2023/01/01 08:26:47;;;;;;;6.07;2.37;;;;;;;10.74;100.00;101390.75;5117320;28;20074;-38
2023/01/01 08:29:13;;;;;;;6.18;1.67;;;;;;;10.73;100.00;101386.38;5117668;28;20372;-37
2023/01/01 08:31:38;;;;;;;6.87;1.83;;;;;;;10.70;100.00;101392.25;5117064;28;20023;-37
2023/01/01 08:34:04;;;;;;;5.77;1.73;;;;;;;10.69;100.00;101393.28;5117556;28;20246;-37
2023/01/01 08:36:29;;;;;;;4.90;1.53;;;;;;;10.73;100.00;101390.97;5117317;28;20403;-37
2023/01/01 08:38:55;;;;;;;7.72;1.73;;;;;;;10.75;100.00;101399.69;5117842;28;20023;-37
2023/01/01 08:41:20;;;;;;;5.40;1.50;;;;;;;10.72;100.00;101402.84;5116926;28;20528;-37
2023/01/01 08:43:45;;;;;;;5.70;1.50;;;;;;;10.68;100.00;101404.31;5117991;28;20028;-37
2023/01/01 08:46:11;;;;;;;6.40;2.63;;;;;;;10.69;100.00;101414.09;5117011;28;20376;-37
2023/01/01 08:48:36;;;;;;;11.43;2.97;;;;;;;10.73;100.00;101426.94;5117337;28;20107;-37
2023/01/01 08:51:01;;;;;;;6.17;1.70;;;;;;;10.75;100.00;101430.28;5098124;28;20320;-37
2023/01/01 08:53:29;;;;;;;6.50;1.40;;;;;;;10.79;100.00;101438.81;5117387;28;20039;-37
2023/01/01 08:56:06;;;;;;;3.15;1.20;;;;;;;10.72;100.00;101414.47;5117662;28;20028;-37
2023/01/01 08:58:34;;;;;;;3.40;1.05;;;;;;;10.68;100.00;101396.19;5117189;28;20038;-37
2023/01/01 09:00:59;;;;;;;5.47;1.30;;;;;;;10.80;100.00;101427.75;5116482;28;20024;-37
2023/01/01 09:03:25;;;;;;;7.20;2.13;;;;;;;10.69;100.00;101420.34;5117368;28;20035;-37
2023/01/01 09:05:51;;;;;;;6.32;1.90;;;;;;;10.78;100.00;101424.44;5116651;28;20261;-37
2023/01/01 09:08:17;;;;;;;8.93;1.90;;;;;;;10.80;100.00;101411.53;5098134;28;20039;-37
2023/01/01 09:10:43;;;;;;;4.70;1.20;;;;;;;10.79;100.00;101409.88;5116326;28;20032;-37
2023/01/01 09:13:10;;;;;;;5.80;1.38;;;;;;;10.76;100.00;101415.72;5117465;28;20031;-38
2023/01/01 09:15:35;;;;;;;7.47;1.40;;;;;;;10.82;100.00;101419.41;5097260;28;20067;-41
2023/01/01 09:18:00;;;;;;;5.28;1.30;;;;;;;10.76;100.00;101420.28;5116533;28;20070;-38
2023/01/01 09:20:26;;;;;;;8.03;1.43;;;;;;;10.82;100.00;101431.06;5116127;28;20077;-38
2023/01/01 09:22:51;;;;;;;6.35;1.75;;;;;;;10.83;100.00;101438.16;5116500;28;20051;-39
2023/01/01 09:25:17;;;;;;;9.50;1.88;;;;;;;10.80;100.00;101422.34;5117112;28;20032;-38
2023/01/01 09:27:42;;;;;;;4.35;1.60;;;;;;;10.82;100.00;101435.66;5116258;28;20028;-37
2023/01/01 09:30:08;;;;;;;6.03;1.77;;;;;;;10.79;100.00;101431.50;5116579;28;20027;-37
2023/01/01 09:32:33;;;;;;;5.03;1.48;;;;;;;10.85;100.00;101439.81;5115819;28;20035;-37
2023/01/01 09:34:59;;;;;;;9.77;2.00;;;;;;;10.85;100.00;101446.03;5116005;28;20032;-37
2023/01/01 09:37:25;;;;;;;6.18;1.80;;;;;;;10.87;100.00;101445.81;5116339;28;20070;-36
2023/01/01 09:39:51;;;;;;;8.05;1.98;;;;;;;10.74;100.00;101417.00;5116033;28;20030;-38
2023/01/01 09:42:42;;;;;;;7.68;2.33;;;;;;;10.81;100.00;101439.41;5116533;28;20031;-37
2023/01/01 09:45:30;;;;;;;4.90;1.88;;;;;;;10.86;100.00;101447.69;5116767;28;20035;-37
2023/01/01 09:48:01;;;;;;;6.65;2.13;;;;;;;10.77;100.00;101432.75;5115736;28;20030;-37
2023/01/01 09:50:35;;;;;;;8.43;2.30;;;;;;;10.87;100.00;101443.94;5116446;28;20029;-38
2023/01/01 09:53:05;;;;;;;8.70;3.10;;;;;;;10.91;100.00;101450.56;5116404;28;20387;-38
2023/01/01 09:55:49;;;;;;;6.55;2.28;;;;;;;10.91;100.00;101449.75;5115980;28;20056;-38
2023/01/01 09:58:18;;;;;;;5.95;2.85;;;;;;;10.92;100.00;101456.81;5115974;28;20024;-38
2023/01/01 10:00:46;;;;;;;9.07;2.70;;;;;;;10.91;100.00;101450.56;5115972;28;20046;-38
2023/01/01 10:03:26;;;;;;;5.18;1.88;;;;;;;10.92;100.00;101448.69;5115857;28;20036;-37
2023/01/01 10:06:21;;;;;;;8.75;2.63;;;;;;;10.99;100.00;101444.09;5116094;28;20027;-37
2023/01/01 10:09:05;;;;;;;7.88;2.55;;;;;;;10.98;100.00;101451.38;5098099;28;20429;-37
2023/01/01 10:11:57;;;;;;;6.75;2.40;;;;;;;11.02;100.00;101447.16;5115719;28;20024;-37
2023/01/01 10:14:29;;;;;;;7.30;2.85;;;;;;;10.98;100.00;101440.56;5115969;28;20031;-37
2023/01/01 10:16:58;;;;;;;5.40;2.60;;;;;;;10.96;100.00;101437.22;5115061;28;20031;-37
2023/01/01 10:19:30;;;;;;;10.23;2.83;;;;;;;10.99;100.00;101434.09;5115377;28;20407;-39
2023/01/01 10:22:02;;;;;;;7.35;2.25;;;;;;;11.09;100.00;101447.94;5114964;28;20490;-38
2023/01/01 10:24:54;;;;;;;9.40;2.35;;;;;;;11.14;100.00;101450.00;5114847;28;20544;-38
2023/01/01 10:27:36;;;;;;;5.10;2.17;;;;;;;11.11;100.00;101446.91;5114977;28;20016;-39
2023/01/01 10:30:11;;;;;;;5.97;2.28;;;;;;;11.11;100.00;101450.44;5115927;28;20023;-38
2023/01/01 10:32:38;;;;;;;5.22;2.28;;;;;;;11.06;100.00;101440.25;5115251;28;20038;-38
2023/01/01 10:35:14;;;;;;;7.40;2.20;;;;;;;11.13;100.00;101439.41;5115207;28;20047;-38
2023/01/01 10:37:40;;;;;;;8.00;4.15;;;;;;;11.24;100.00;101449.50;5114904;28;20472;-38
2023/01/01 10:40:14;;;;;;;9.95;4.18;;;;;;;11.16;100.00;101437.06;5114966;28;20024;-37
2023/01/01 10:42:39;;;;;;;7.72;3.38;;;;;;;11.17;100.00;101440.59;5114814;28;20028;-38
2023/01/01 10:45:05;;;;;;;11.07;3.85;;;;;;;11.20;100.00;101446.41;5115117;28;20110;-38
2023/01/01 10:47:30;;;;;;;8.45;3.22;;;;;;;11.14;100.00;101438.34;5114377;28;20092;-38
2023/01/01 10:50:04;;;;;;;7.97;3.47;;;;;;;11.25;100.00;101443.88;5115319;28;20050;-38
2023/01/01 10:52:34;;;;;;;9.38;2.95;;;;;;;11.31;100.00;101453.81;5115287;28;20050;-37
2023/01/01 10:55:00;;;;;;;8.07;3.15;;;;;;;11.30;100.00;101444.03;5114920;28;20413;-38
2023/01/01 10:57:25;;;;;;;9.43;3.80;;;;;;;11.37;100.00;101462.94;5114619;28;20123;-37
2023/01/01 10:59:50;;;;;;;11.03;3.70;;;;;;;11.40;100.00;101461.66;5114520;28;20043;-37
2023/01/01 11:02:19;;;;;;;10.13;3.30;;;;;;;11.48;100.00;101461.41;5114503;28;20032;-37
2023/01/01 11:04:45;;;;;;;7.40;2.80;;;;;;;11.57;100.00;101463.59;5114691;28;20050;-37
2023/01/01 11:07:23;;;;;;;;;;;;;;;11.69;100.00;101466.38;5114489;28;20027;-38
2023/01/01 11:09:49;;;;;;;8.65;3.05;;;;;;;11.70;100.00;101467.22;5115306;28;19911;-37
2023/01/01 11:12:28;;;;;;;12.95;3.50;;;;;;;11.73;100.00;101481.16;5113974;28;20535;-37
2023/01/01 11:14:56;;;;;;;7.30;2.97;;;;;;;11.75;100.00;101478.22;5114378;28;20055;-37
2023/01/01 11:17:28;;;;;;;9.98;2.85;;;;;;;11.80;100.00;101476.50;5114195;28;20038;-37
2023/01/01 11:19:56;;;;;;;7.43;3.20;;;;;;;11.84;100.00;101485.03;5114292;28;20412;-37
2023/01/01 11:22:36;;;;;;;6.30;2.90;;;;;;;11.84;100.00;101477.72;5114207;28;20027;-37
2023/01/01 11:25:14;;;;;;;7.82;2.80;;;;;;;11.90;100.00;101486.00;5113949;28;20535;-37
2023/01/01 11:27:39;;;;;;;8.00;2.40;;;;;;;11.91;100.00;101487.66;5114020;28;20535;-37
2023/01/01 11:30:22;;;;;;;10.07;2.50;;;;;;;11.92;100.00;101476.63;5113950;28;20119;-37
2023/01/01 11:32:50;;;;;;;9.10;2.92;;;;;;;11.96;100.00;101480.56;5114031;28;20069;-37
2023/01/01 11:35:22;;;;;;;7.43;3.30;;;;;;;11.91;100.00;101449.72;5113925;28;20028;-37